sensor_id;sensor_type;location;lat;lon;timestamp;temperature;humidity
37412;DHT22;23278;52.110;6.050;2024-01-15T00:00:42;1.90;99.90
37412;DHT22;23278;52.110;6.050;2024-01-15T00:03:08;1.90;99.90
37412;DHT22;23278;52.110;6.050;2024-01-15T00:05:35;1.90;99.90
37412;DHT22;23278;52.110;6.050;2024-01-15T00:08:01;1.90;99.90
37412;DHT22;23278;52.110;6.050;2024-01-15T00:10:26;1.80;99.90
37412;DHT22;23278;52.110;6.050;2024-01-15T00:12:52;1.80;99.90
37412;DHT22;23278;52.110;6.050;2024-01-15T00:15:18;1.80;99.90
37412;DHT22;23278;52.110;6.050;2024-01-15T00:17:44;1.70;99.90
37412;DHT22;23278;52.110;6.050;2024-01-15T00:20:10;1.70;99.90
37412;DHT22;23278;52.110;6.050;2024-01-15T00:22:36;1.70;99.90
37412;DHT22;23278;52.110;6.050;2024-01-15T00:25:03;1.70;99.90
37412;DHT22;23278;52.110;6.050;2024-01-15T00:27:29;1.60;99.90
37412;DHT22;23278;52.110;6.050;2024-01-15T00:29:55;1.60;99.90
37412;DHT22;23278;52.110;6.050;2024-01-15T00:32:20;1.60;99.90
37412;DHT22;23278;52.110;6.050;2024-01-15T00:34:46;1.60;99.90
37412;DHT22;23278;52.110;6.050;2024-01-15T00:37:12;1.50;99.90
37412;DHT22;23278;52.110;6.050;2024-01-15T00:39:38;1.50;99.90
37412;DHT22;23278;52.110;6.050;2024-01-15T00:42:04;1.50;99.90
37412;DHT22;23278;52.110;6.050;2024-01-15T00:44:30;1.50;99.90
37412;DHT22;23278;52.110;6.050;2024-01-15T00:46:56;1.50;99.90
37412;DHT22;23278;52.110;6.050;2024-01-15T00:49:22;1.50;99.90
37412;DHT22;23278;52.110;6.050;2024-01-15T00:51:48;1.40;99.90
37412;DHT22;23278;52.110;6.050;2024-01-15T00:54:14;1.40;99.90
37412;DHT22;23278;52.110;6.050;2024-01-15T00:56:39;1.40;99.90
37412;DHT22;23278;52.110;6.050;2024-01-15T00:59:05;1.40;99.90
37412;DHT22;23278;52.110;6.050;2024-01-15T01:01:31;1.40;99.90
37412;DHT22;23278;52.110;6.050;2024-01-15T01:03:57;1.40;99.90
37412;DHT22;23278;52.110;6.050;2024-01-15T01:06:23;1.40;99.90
37412;DHT22;23278;52.110;6.050;2024-01-15T01:08:49;1.30;99.90
37412;DHT22;23278;52.110;6.050;2024-01-15T01:11:15;1.30;99.90
37412;DHT22;23278;52.110;6.050;2024-01-15T01:13:42;1.30;99.90
37412;DHT22;23278;52.110;6.050;2024-01-15T01:16:08;1.30;99.90
37412;DHT22;23278;52.110;6.050;2024-01-15T01:18:34;1.40;99.90
37412;DHT22;23278;52.110;6.050;2024-01-15T01:21:00;1.40;99.90
37412;DHT22;23278;52.110;6.050;2024-01-15T01:23:26;1.30;99.90
37412;DHT22;23278;52.110;6.050;2024-01-15T01:25:52;1.30;99.90
37412;DHT22;23278;52.110;6.050;2024-01-15T01:28:18;1.30;99.90
37412;DHT22;23278;52.110;6.050;2024-01-15T01:30:43;1.30;99.90
37412;DHT22;23278;52.110;6.050;2024-01-15T01:33:09;1.20;99.90
37412;DHT22;23278;52.110;6.050;2024-01-15T01:35:36;1.20;99.90
37412;DHT22;23278;52.110;6.050;2024-01-15T01:38:01;1.20;99.90
37412;DHT22;23278;52.110;6.050;2024-01-15T01:40:27;1.20;99.90
37412;DHT22;23278;52.110;6.050;2024-01-15T01:42:53;1.20;99.90
37412;DHT22;23278;52.110;6.050;2024-01-15T01:45:19;1.20;99.90
37412;DHT22;23278;52.110;6.050;2024-01-15T01:47:45;1.10;99.90
37412;DHT22;23278;52.110;6.050;2024-01-15T01:50:12;1.10;99.90
37412;DHT22;23278;52.110;6.050;2024-01-15T01:52:38;1.10;99.90
37412;DHT22;23278;52.110;6.050;2024-01-15T01:55:06;1.10;99.90
37412;DHT22;23278;52.110;6.050;2024-01-15T01:57:34;1.10;99.90
37412;DHT22;23278;52.110;6.050;2024-01-15T02:00:02;1.10;99.90
37412;DHT22;23278;52.110;6.050;2024-01-15T02:02:37;1.10;99.90
37412;DHT22;23278;52.110;6.050;2024-01-15T02:05:05;1.10;99.90
37412;DHT22;23278;52.110;6.050;2024-01-15T02:07:34;1.10;99.90
37412;DHT22;23278;52.110;6.050;2024-01-15T02:10:01;1.00;99.90
37412;DHT22;23278;52.110;6.050;2024-01-15T02:12:27;1.00;99.90
37412;DHT22;23278;52.110;6.050;2024-01-15T02:14:53;1.00;99.90
37412;DHT22;23278;52.110;6.050;2024-01-15T02:17:19;1.10;99.90
37412;DHT22;23278;52.110;6.050;2024-01-15T02:19:45;1.00;99.90
37412;DHT22;23278;52.110;6.050;2024-01-15T02:22:11;1.00;99.90
37412;DHT22;23278;52.110;6.050;2024-01-15T02:24:37;1.00;99.90
37412;DHT22;23278;52.110;6.050;2024-01-15T02:27:03;1.00;99.90
37412;DHT22;23278;52.110;6.050;2024-01-15T02:29:29;1.00;99.90
37412;DHT22;23278;52.110;6.050;2024-01-15T02:31:55;1.00;99.90
37412;DHT22;23278;52.110;6.050;2024-01-15T02:34:21;0.90;99.90
37412;DHT22;23278;52.110;6.050;2024-01-15T02:36:46;0.90;99.90
37412;DHT22;23278;52.110;6.050;2024-01-15T02:39:12;0.90;99.90
37412;DHT22;23278;52.110;6.050;2024-01-15T02:41:38;0.90;99.90
37412;DHT22;23278;52.110;6.050;2024-01-15T02:44:04;0.90;99.90
37412;DHT22;23278;52.110;6.050;2024-01-15T02:46:30;0.90;99.90
37412;DHT22;23278;52.110;6.050;2024-01-15T02:48:56;0.80;99.90
37412;DHT22;23278;52.110;6.050;2024-01-15T02:51:21;0.90;99.90
37412;DHT22;23278;52.110;6.050;2024-01-15T02:53:49;0.90;99.90
37412;DHT22;23278;52.110;6.050;2024-01-15T02:56:16;0.90;99.90
37412;DHT22;23278;52.110;6.050;2024-01-15T02:58:41;0.90;99.90
37412;DHT22;23278;52.110;6.050;2024-01-15T03:01:07;1.00;99.90
37412;DHT22;23278;52.110;6.050;2024-01-15T03:03:33;1.00;99.90
37412;DHT22;23278;52.110;6.050;2024-01-15T03:05:59;1.00;99.90
37412;DHT22;23278;52.110;6.050;2024-01-15T03:08:25;1.00;99.90
37412;DHT22;23278;52.110;6.050;2024-01-15T03:10:51;1.00;99.90
37412;DHT22;23278;52.110;6.050;2024-01-15T03:13:16;1.00;99.90
37412;DHT22;23278;52.110;6.050;2024-01-15T03:15:44;1.00;99.90
37412;DHT22;23278;52.110;6.050;2024-01-15T03:18:10;0.90;99.90
37412;DHT22;23278;52.110;6.050;2024-01-15T03:20:36;0.90;99.90
37412;DHT22;23278;52.110;6.050;2024-01-15T03:23:02;0.90;99.90
37412;DHT22;23278;52.110;6.050;2024-01-15T03:25:28;1.00;99.90
37412;DHT22;23278;52.110;6.050;2024-01-15T03:27:54;1.00;99.90
37412;DHT22;23278;52.110;6.050;2024-01-15T03:30:19;1.00;99.90
37412;DHT22;23278;52.110;6.050;2024-01-15T03:32:45;1.00;99.90
37412;DHT22;23278;52.110;6.050;2024-01-15T03:35:13;1.00;99.90
37412;DHT22;23278;52.110;6.050;2024-01-15T03:37:38;1.10;99.90
37412;DHT22;23278;52.110;6.050;2024-01-15T03:40:05;1.10;99.90
37412;DHT22;23278;52.110;6.050;2024-01-15T03:42:31;1.10;99.90
37412;DHT22;23278;52.110;6.050;2024-01-15T03:44:57;1.20;99.90
37412;DHT22;23278;52.110;6.050;2024-01-15T03:47:23;1.30;99.90
37412;DHT22;23278;52.110;6.050;2024-01-15T03:49:49;1.30;99.90
37412;DHT22;23278;52.110;6.050;2024-01-15T03:52:15;1.30;99.90
37412;DHT22;23278;52.110;6.050;2024-01-15T03:54:41;1.30;99.90
37412;DHT22;23278;52.110;6.050;2024-01-15T03:57:07;1.30;99.90
37412;DHT22;23278;52.110;6.050;2024-01-15T03:59:33;1.30;99.90
37412;DHT22;23278;52.110;6.050;2024-01-15T04:01:59;1.40;99.90
37412;DHT22;23278;52.110;6.050;2024-01-15T04:04:25;1.40;99.90
37412;DHT22;23278;52.110;6.050;2024-01-15T04:06:51;1.40;99.90
37412;DHT22;23278;52.110;6.050;2024-01-15T04:09:17;1.40;99.90
37412;DHT22;23278;52.110;6.050;2024-01-15T04:11:42;1.40;99.90
37412;DHT22;23278;52.110;6.050;2024-01-15T04:14:08;1.40;99.90
37412;DHT22;23278;52.110;6.050;2024-01-15T04:16:34;1.50;99.90
37412;DHT22;23278;52.110;6.050;2024-01-15T04:19:00;1.50;99.90
37412;DHT22;23278;52.110;6.050;2024-01-15T04:21:26;1.50;99.90
37412;DHT22;23278;52.110;6.050;2024-01-15T04:23:52;1.50;99.90
37412;DHT22;23278;52.110;6.050;2024-01-15T04:26:18;1.50;99.90
37412;DHT22;23278;52.110;6.050;2024-01-15T04:28:44;1.50;99.90
37412;DHT22;23278;52.110;6.050;2024-01-15T04:31:10;1.50;99.90
37412;DHT22;23278;52.110;6.050;2024-01-15T04:33:45;1.50;99.90
37412;DHT22;23278;52.110;6.050;2024-01-15T04:36:11;1.40;99.90
37412;DHT22;23278;52.110;6.050;2024-01-15T04:38:37;1.40;99.90
37412;DHT22;23278;52.110;6.050;2024-01-15T04:41:03;1.30;99.90
37412;DHT22;23278;52.110;6.050;2024-01-15T04:43:29;1.30;99.90
37412;DHT22;23278;52.110;6.050;2024-01-15T04:45:55;1.30;99.90
37412;DHT22;23278;52.110;6.050;2024-01-15T04:48:21;1.30;99.90
37412;DHT22;23278;52.110;6.050;2024-01-15T04:50:48;1.20;99.90
37412;DHT22;23278;52.110;6.050;2024-01-15T04:53:14;1.30;99.90
37412;DHT22;23278;52.110;6.050;2024-01-15T04:55:40;1.30;99.90
37412;DHT22;23278;52.110;6.050;2024-01-15T04:58:06;1.30;99.90
37412;DHT22;23278;52.110;6.050;2024-01-15T05:00:32;1.40;99.90
37412;DHT22;23278;52.110;6.050;2024-01-15T05:02:58;1.40;99.90
37412;DHT22;23278;52.110;6.050;2024-01-15T05:05:24;1.50;99.90
37412;DHT22;23278;52.110;6.050;2024-01-15T05:07:50;1.60;99.90
37412;DHT22;23278;52.110;6.050;2024-01-15T05:10:15;1.70;99.90
37412;DHT22;23278;52.110;6.050;2024-01-15T05:12:41;1.70;99.90
37412;DHT22;23278;52.110;6.050;2024-01-15T05:15:07;1.80;99.90
37412;DHT22;23278;52.110;6.050;2024-01-15T05:17:34;1.80;99.90
37412;DHT22;23278;52.110;6.050;2024-01-15T05:20:00;1.90;99.90
37412;DHT22;23278;52.110;6.050;2024-01-15T05:22:26;1.90;99.90
37412;DHT22;23278;52.110;6.050;2024-01-15T05:24:52;1.90;99.90
37412;DHT22;23278;52.110;6.050;2024-01-15T05:27:17;1.90;99.90
37412;DHT22;23278;52.110;6.050;2024-01-15T05:29:43;1.90;99.90
37412;DHT22;23278;52.110;6.050;2024-01-15T05:32:09;1.90;99.90
37412;DHT22;23278;52.110;6.050;2024-01-15T05:34:35;1.90;99.90
37412;DHT22;23278;52.110;6.050;2024-01-15T05:37:01;1.90;99.90
37412;DHT22;23278;52.110;6.050;2024-01-15T05:39:27;1.80;99.90
37412;DHT22;23278;52.110;6.050;2024-01-15T05:41:53;1.70;99.90
37412;DHT22;23278;52.110;6.050;2024-01-15T05:44:19;1.60;99.90
37412;DHT22;23278;52.110;6.050;2024-01-15T05:46:45;1.60;99.90
37412;DHT22;23278;52.110;6.050;2024-01-15T05:49:10;1.60;99.90
37412;DHT22;23278;52.110;6.050;2024-01-15T05:51:36;1.60;99.90
37412;DHT22;23278;52.110;6.050;2024-01-15T05:54:02;1.60;99.90
37412;DHT22;23278;52.110;6.050;2024-01-15T05:56:28;1.50;99.90
37412;DHT22;23278;52.110;6.050;2024-01-15T05:58:54;1.50;99.90
37412;DHT22;23278;52.110;6.050;2024-01-15T06:01:21;1.60;99.90
37412;DHT22;23278;52.110;6.050;2024-01-15T06:03:47;1.60;99.90
37412;DHT22;23278;52.110;6.050;2024-01-15T06:06:13;1.70;99.90
37412;DHT22;23278;52.110;6.050;2024-01-15T06:08:39;1.80;99.90
37412;DHT22;23278;52.110;6.050;2024-01-15T06:11:06;1.80;99.90
37412;DHT22;23278;52.110;6.050;2024-01-15T06:13:32;1.90;99.90
37412;DHT22;23278;52.110;6.050;2024-01-15T06:15:58;1.90;99.90
37412;DHT22;23278;52.110;6.050;2024-01-15T06:18:24;2.00;99.90
37412;DHT22;23278;52.110;6.050;2024-01-15T06:20:50;2.00;99.90
37412;DHT22;23278;52.110;6.050;2024-01-15T06:23:16;2.00;99.90
37412;DHT22;23278;52.110;6.050;2024-01-15T06:25:42;2.00;99.90
37412;DHT22;23278;52.110;6.050;2024-01-15T06:28:08;2.10;99.90
37412;DHT22;23278;52.110;6.050;2024-01-15T06:30:33;2.10;99.90
37412;DHT22;23278;52.110;6.050;2024-01-15T06:33:00;2.10;99.90
37412;DHT22;23278;52.110;6.050;2024-01-15T06:35:26;2.10;99.90
37412;DHT22;23278;52.110;6.050;2024-01-15T06:37:52;2.20;99.90
37412;DHT22;23278;52.110;6.050;2024-01-15T06:40:18;2.20;99.90
37412;DHT22;23278;52.110;6.050;2024-01-15T06:42:44;2.20;99.90
37412;DHT22;23278;52.110;6.050;2024-01-15T06:45:10;2.20;99.90
37412;DHT22;23278;52.110;6.050;2024-01-15T06:47:36;2.20;99.90
37412;DHT22;23278;52.110;6.050;2024-01-15T06:50:02;2.20;99.90
37412;DHT22;23278;52.110;6.050;2024-01-15T06:52:28;2.20;99.90
37412;DHT22;23278;52.110;6.050;2024-01-15T06:54:54;2.20;99.90
37412;DHT22;23278;52.110;6.050;2024-01-15T06:57:20;2.10;99.90
37412;DHT22;23278;52.110;6.050;2024-01-15T06:59:46;2.00;99.90
37412;DHT22;23278;52.110;6.050;2024-01-15T07:02:12;1.90;99.90
37412;DHT22;23278;52.110;6.050;2024-01-15T07:04:38;1.80;99.90
37412;DHT22;23278;52.110;6.050;2024-01-15T07:07:04;1.70;99.90
37412;DHT22;23278;52.110;6.050;2024-01-15T07:09:30;1.60;99.90
37412;DHT22;23278;52.110;6.050;2024-01-15T07:11:56;1.60;99.90
37412;DHT22;23278;52.110;6.050;2024-01-15T07:14:23;1.60;99.90
37412;DHT22;23278;52.110;6.050;2024-01-15T07:16:49;1.60;99.90
37412;DHT22;23278;52.110;6.050;2024-01-15T07:19:15;1.70;99.90
37412;DHT22;23278;52.110;6.050;2024-01-15T07:21:41;1.70;99.90
37412;DHT22;23278;52.110;6.050;2024-01-15T07:24:11;1.70;99.90
37412;DHT22;23278;52.110;6.050;2024-01-15T07:26:38;1.70;99.90
37412;DHT22;23278;52.110;6.050;2024-01-15T07:29:09;1.80;99.90
37412;DHT22;23278;52.110;6.050;2024-01-15T07:31:35;1.80;99.90
37412;DHT22;23278;52.110;6.050;2024-01-15T07:34:01;1.80;99.90
37412;DHT22;23278;52.110;6.050;2024-01-15T07:36:27;1.90;99.90
37412;DHT22;23278;52.110;6.050;2024-01-15T07:38:52;1.90;99.90
37412;DHT22;23278;52.110;6.050;2024-01-15T07:41:18;1.90;99.90
37412;DHT22;23278;52.110;6.050;2024-01-15T07:43:44;1.90;99.90
37412;DHT22;23278;52.110;6.050;2024-01-15T07:46:10;1.90;99.90
37412;DHT22;23278;52.110;6.050;2024-01-15T07:48:36;2.00;99.90
37412;DHT22;23278;52.110;6.050;2024-01-15T07:51:02;2.00;99.90
37412;DHT22;23278;52.110;6.050;2024-01-15T07:53:29;2.10;99.90
37412;DHT22;23278;52.110;6.050;2024-01-15T07:55:55;2.00;99.90
37412;DHT22;23278;52.110;6.050;2024-01-15T07:58:21;2.00;99.90
37412;DHT22;23278;52.110;6.050;2024-01-15T08:00:47;2.00;99.90
37412;DHT22;23278;52.110;6.050;2024-01-15T08:03:13;2.00;99.90
37412;DHT22;23278;52.110;6.050;2024-01-15T08:05:39;1.90;99.90
37412;DHT22;23278;52.110;6.050;2024-01-15T08:08:05;1.90;99.90
37412;DHT22;23278;52.110;6.050;2024-01-15T08:10:31;1.80;99.90
37412;DHT22;23278;52.110;6.050;2024-01-15T08:13:03;1.70;99.90
37412;DHT22;23278;52.110;6.050;2024-01-15T08:15:29;1.80;99.90
37412;DHT22;23278;52.110;6.050;2024-01-15T08:17:55;1.80;99.90
37412;DHT22;23278;52.110;6.050;2024-01-15T08:20:21;1.90;99.90
37412;DHT22;23278;52.110;6.050;2024-01-15T08:22:47;2.00;99.90
37412;DHT22;23278;52.110;6.050;2024-01-15T08:25:13;2.00;99.90
37412;DHT22;23278;52.110;6.050;2024-01-15T08:27:39;2.00;99.90
37412;DHT22;23278;52.110;6.050;2024-01-15T08:30:06;2.10;99.90
37412;DHT22;23278;52.110;6.050;2024-01-15T08:32:32;2.10;99.90
37412;DHT22;23278;52.110;6.050;2024-01-15T08:34:57;2.10;99.90
37412;DHT22;23278;52.110;6.050;2024-01-15T08:37:23;2.10;99.90
37412;DHT22;23278;52.110;6.050;2024-01-15T08:39:49;2.00;99.90
37412;DHT22;23278;52.110;6.050;2024-01-15T08:42:15;1.90;99.90
37412;DHT22;23278;52.110;6.050;2024-01-15T08:44:41;1.80;99.90
37412;DHT22;23278;52.110;6.050;2024-01-15T08:47:09;1.70;99.90
37412;DHT22;23278;52.110;6.050;2024-01-15T08:49:35;1.70;99.90
37412;DHT22;23278;52.110;6.050;2024-01-15T08:52:01;1.60;99.90
37412;DHT22;23278;52.110;6.050;2024-01-15T08:54:27;1.60;99.90
37412;DHT22;23278;52.110;6.050;2024-01-15T08:56:53;1.60;99.90
37412;DHT22;23278;52.110;6.050;2024-01-15T08:59:19;1.60;99.90
37412;DHT22;23278;52.110;6.050;2024-01-15T09:01:51;1.70;99.90
37412;DHT22;23278;52.110;6.050;2024-01-15T09:04:17;1.80;99.90
37412;DHT22;23278;52.110;6.050;2024-01-15T09:06:46;1.90;99.90
37412;DHT22;23278;52.110;6.050;2024-01-15T09:09:13;2.00;99.90
37412;DHT22;23278;52.110;6.050;2024-01-15T09:11:40;2.10;99.90
37412;DHT22;23278;52.110;6.050;2024-01-15T09:14:07;2.20;99.90
37412;DHT22;23278;52.110;6.050;2024-01-15T09:16:34;2.20;99.90
37412;DHT22;23278;52.110;6.050;2024-01-15T09:19:00;2.20;99.90
37412;DHT22;23278;52.110;6.050;2024-01-15T09:21:25;2.20;99.90
37412;DHT22;23278;52.110;6.050;2024-01-15T09:23:51;2.20;99.90
37412;DHT22;23278;52.110;6.050;2024-01-15T09:26:17;2.20;99.90
37412;DHT22;23278;52.110;6.050;2024-01-15T09:28:43;2.20;99.90
37412;DHT22;23278;52.110;6.050;2024-01-15T09:31:09;2.10;99.90
37412;DHT22;23278;52.110;6.050;2024-01-15T09:33:35;2.00;99.90
37412;DHT22;23278;52.110;6.050;2024-01-15T09:36:04;2.00;99.90
37412;DHT22;23278;52.110;6.050;2024-01-15T09:38:31;2.30;99.90
37412;DHT22;23278;52.110;6.050;2024-01-15T09:40:57;3.00;99.90
37412;DHT22;23278;52.110;6.050;2024-01-15T09:43:23;3.80;99.90
37412;DHT22;23278;52.110;6.050;2024-01-15T09:45:50;4.30;99.90
37412;DHT22;23278;52.110;6.050;2024-01-15T09:48:16;4.50;99.90
37412;DHT22;23278;52.110;6.050;2024-01-15T09:50:42;4.40;99.90
37412;DHT22;23278;52.110;6.050;2024-01-15T09:53:09;4.20;99.90
37412;DHT22;23278;52.110;6.050;2024-01-15T09:55:38;4.10;99.90
37412;DHT22;23278;52.110;6.050;2024-01-15T09:58:05;4.10;99.90
37412;DHT22;23278;52.110;6.050;2024-01-15T10:00:33;4.00;99.90
37412;DHT22;23278;52.110;6.050;2024-01-15T10:03:03;4.00;99.90
37412;DHT22;23278;52.110;6.050;2024-01-15T10:05:29;4.50;99.90
37412;DHT22;23278;52.110;6.050;2024-01-15T10:07:56;5.10;99.90
37412;DHT22;23278;52.110;6.050;2024-01-15T10:10:23;5.60;99.90
37412;DHT22;23278;52.110;6.050;2024-01-15T10:12:49;5.80;99.90
37412;DHT22;23278;52.110;6.050;2024-01-15T10:15:15;5.70;99.90
37412;DHT22;23278;52.110;6.050;2024-01-15T10:17:42;5.60;99.90
37412;DHT22;23278;52.110;6.050;2024-01-15T10:20:10;5.70;99.90
37412;DHT22;23278;52.110;6.050;2024-01-15T10:22:40;5.50;99.90
37412;DHT22;23278;52.110;6.050;2024-01-15T10:25:06;5.30;99.90
37412;DHT22;23278;52.110;6.050;2024-01-15T10:27:36;5.90;99.90
37412;DHT22;23278;52.110;6.050;2024-01-15T10:30:02;6.50;99.90
37412;DHT22;23278;52.110;6.050;2024-01-15T10:32:28;6.90;99.90
37412;DHT22;23278;52.110;6.050;2024-01-15T10:34:54;6.60;99.90
37412;DHT22;23278;52.110;6.050;2024-01-15T10:37:21;6.20;99.90
37412;DHT22;23278;52.110;6.050;2024-01-15T10:39:47;6.50;99.90
37412;DHT22;23278;52.110;6.050;2024-01-15T10:42:13;7.40;99.90
37412;DHT22;23278;52.110;6.050;2024-01-15T10:44:39;8.30;98.90
37412;DHT22;23278;52.110;6.050;2024-01-15T10:47:07;8.90;97.60
37412;DHT22;23278;52.110;6.050;2024-01-15T10:49:33;9.30;95.00
37412;DHT22;23278;52.110;6.050;2024-01-15T10:52:00;9.00;94.10
37412;DHT22;23278;52.110;6.050;2024-01-15T10:54:27;8.80;94.20
37412;DHT22;23278;52.110;6.050;2024-01-15T10:56:54;8.40;94.30
37412;DHT22;23278;52.110;6.050;2024-01-15T10:59:21;8.10;95.20
37412;DHT22;23278;52.110;6.050;2024-01-15T11:01:53;8.60;96.10
37412;DHT22;23278;52.110;6.050;2024-01-15T11:04:20;9.00;94.60
37412;DHT22;23278;52.110;6.050;2024-01-15T11:06:50;8.80;93.20
37412;DHT22;23278;52.110;6.050;2024-01-15T11:09:16;8.20;93.50
37412;DHT22;23278;52.110;6.050;2024-01-15T11:11:45;7.40;94.00
37412;DHT22;23278;52.110;6.050;2024-01-15T11:17:00;6.30;95.90
37412;DHT22;23278;52.110;6.050;2024-01-15T11:25:05;6.40;97.70
37412;DHT22;23278;52.110;6.050;2024-01-15T11:27:46;6.70;97.10
37412;DHT22;23278;52.110;6.050;2024-01-15T11:30:13;6.40;96.80
37412;DHT22;23278;52.110;6.050;2024-01-15T11:32:40;6.10;97.40
37412;DHT22;23278;52.110;6.050;2024-01-15T11:35:09;5.90;98.40
37412;DHT22;23278;52.110;6.050;2024-01-15T11:40:22;5.50;99.40
37412;DHT22;23278;52.110;6.050;2024-01-15T11:42:49;5.40;99.90
37412;DHT22;23278;52.110;6.050;2024-01-15T11:45:21;6.00;99.90
37412;DHT22;23278;52.110;6.050;2024-01-15T11:50:21;8.30;99.40
37412;DHT22;23278;52.110;6.050;2024-01-15T11:52:56;9.40;96.80
37412;DHT22;23278;52.110;6.050;2024-01-15T11:55:32;10.10;95.20
37412;DHT22;23278;52.110;6.050;2024-01-15T11:58:01;10.80;93.80
37412;DHT22;23278;52.110;6.050;2024-01-15T12:00:28;11.40;92.00
37412;DHT22;23278;52.110;6.050;2024-01-15T12:02:54;11.60;88.00
37412;DHT22;23278;52.110;6.050;2024-01-15T12:05:22;11.70;89.00
37412;DHT22;23278;52.110;6.050;2024-01-15T12:07:49;11.80;86.70
37412;DHT22;23278;52.110;6.050;2024-01-15T12:10:20;12.40;86.00
37412;DHT22;23278;52.110;6.050;2024-01-15T12:13:13;13.00;83.60
37412;DHT22;23278;52.110;6.050;2024-01-15T12:15:39;13.30;79.50
37412;DHT22;23278;52.110;6.050;2024-01-15T12:18:08;13.50;78.70
37412;DHT22;23278;52.110;6.050;2024-01-15T12:20:35;13.40;77.00
37412;DHT22;23278;52.110;6.050;2024-01-15T12:23:02;12.20;76.90
37412;DHT22;23278;52.110;6.050;2024-01-15T12:25:32;10.90;79.80
37412;DHT22;23278;52.110;6.050;2024-01-15T12:27:59;9.80;83.60
37412;DHT22;23278;52.110;6.050;2024-01-15T12:30:30;9.00;86.00
37412;DHT22;23278;52.110;6.050;2024-01-15T12:33:01;8.40;88.60
37412;DHT22;23278;52.110;6.050;2024-01-15T12:35:29;8.00;90.20
37412;DHT22;23278;52.110;6.050;2024-01-15T12:37:56;7.50;90.90
37412;DHT22;23278;52.110;6.050;2024-01-15T12:40:23;7.20;91.60
37412;DHT22;23278;52.110;6.050;2024-01-15T12:42:49;6.80;92.20
37412;DHT22;23278;52.110;6.050;2024-01-15T12:45:15;6.40;93.20
37412;DHT22;23278;52.110;6.050;2024-01-15T12:47:42;6.20;94.00
37412;DHT22;23278;52.110;6.050;2024-01-15T12:50:09;6.10;94.40
37412;DHT22;23278;52.110;6.050;2024-01-15T12:52:36;6.10;94.80
37412;DHT22;23278;52.110;6.050;2024-01-15T12:55:07;6.40;95.50
37412;DHT22;23278;52.110;6.050;2024-01-15T12:57:35;7.10;96.00
37412;DHT22;23278;52.110;6.050;2024-01-15T13:00:02;7.90;94.90
37412;DHT22;23278;52.110;6.050;2024-01-15T13:02:37;8.70;94.50
37412;DHT22;23278;52.110;6.050;2024-01-15T13:05:04;9.70;92.70
37412;DHT22;23278;52.110;6.050;2024-01-15T13:07:41;10.70;90.20
37412;DHT22;23278;52.110;6.050;2024-01-15T13:10:08;11.50;82.50
37412;DHT22;23278;52.110;6.050;2024-01-15T13:12:37;11.80;80.30
37412;DHT22;23278;52.110;6.050;2024-01-15T13:15:04;11.40;77.80
37412;DHT22;23278;52.110;6.050;2024-01-15T13:17:31;10.40;77.50
37412;DHT22;23278;52.110;6.050;2024-01-15T13:19:56;9.40;79.90
37412;DHT22;23278;52.110;6.050;2024-01-15T13:22:22;8.60;82.20
37412;DHT22;23278;52.110;6.050;2024-01-15T13:24:51;8.00;84.50
37412;DHT22;23278;52.110;6.050;2024-01-15T13:27:17;7.50;86.80
37412;DHT22;23278;52.110;6.050;2024-01-15T13:29:42;7.00;88.60
37412;DHT22;23278;52.110;6.050;2024-01-15T13:32:10;6.60;90.30
37412;DHT22;23278;52.110;6.050;2024-01-15T13:34:38;6.40;91.30
37412;DHT22;23278;52.110;6.050;2024-01-15T13:37:05;6.20;91.90
37412;DHT22;23278;52.110;6.050;2024-01-15T13:39:31;6.10;92.50
37412;DHT22;23278;52.110;6.050;2024-01-15T13:41:59;6.20;92.90
37412;DHT22;23278;52.110;6.050;2024-01-15T13:44:25;6.10;92.90
37412;DHT22;23278;52.110;6.050;2024-01-15T13:46:51;6.20;93.40
37412;DHT22;23278;52.110;6.050;2024-01-15T13:49:18;6.50;94.00
37412;DHT22;23278;52.110;6.050;2024-01-15T13:51:44;7.10;93.70
37412;DHT22;23278;52.110;6.050;2024-01-15T13:54:10;7.90;92.90
37412;DHT22;23278;52.110;6.050;2024-01-15T13:56:36;8.70;90.90
37412;DHT22;23278;52.110;6.050;2024-01-15T13:59:02;9.30;88.80
37412;DHT22;23278;52.110;6.050;2024-01-15T14:01:29;9.70;85.20
37412;DHT22;23278;52.110;6.050;2024-01-15T14:03:55;9.90;82.20
37412;DHT22;23278;52.110;6.050;2024-01-15T14:06:21;10.00;81.00
37412;DHT22;23278;52.110;6.050;2024-01-15T14:08:47;9.80;80.60
37412;DHT22;23278;52.110;6.050;2024-01-15T14:11:13;9.60;81.40
37412;DHT22;23278;52.110;6.050;2024-01-15T14:13:39;9.70;82.20
37412;DHT22;23278;52.110;6.050;2024-01-15T14:16:05;9.90;81.10
37412;DHT22;23278;52.110;6.050;2024-01-15T14:18:31;9.40;81.50
37412;DHT22;23278;52.110;6.050;2024-01-15T14:20:58;8.80;82.70
37412;DHT22;23278;52.110;6.050;2024-01-15T14:23:24;8.10;84.30
37412;DHT22;23278;52.110;6.050;2024-01-15T14:25:50;7.50;86.50
37412;DHT22;23278;52.110;6.050;2024-01-15T14:28:16;7.10;88.90
37412;DHT22;23278;52.110;6.050;2024-01-15T14:30:42;6.70;90.40
37412;DHT22;23278;52.110;6.050;2024-01-15T14:33:08;6.40;91.00
37412;DHT22;23278;52.110;6.050;2024-01-15T14:35:33;6.10;91.80
37412;DHT22;23278;52.110;6.050;2024-01-15T14:37:59;6.00;92.40
37412;DHT22;23278;52.110;6.050;2024-01-15T14:40:26;5.80;93.20
37412;DHT22;23278;52.110;6.050;2024-01-15T14:42:52;5.60;94.00
37412;DHT22;23278;52.110;6.050;2024-01-15T14:45:18;5.40;94.20
37412;DHT22;23278;52.110;6.050;2024-01-15T14:47:44;5.40;94.70
37412;DHT22;23278;52.110;6.050;2024-01-15T14:50:10;5.20;95.00
37412;DHT22;23278;52.110;6.050;2024-01-15T14:52:38;5.10;95.30
37412;DHT22;23278;52.110;6.050;2024-01-15T14:55:05;5.00;95.90
37412;DHT22;23278;52.110;6.050;2024-01-15T14:57:31;4.90;96.20
37412;DHT22;23278;52.110;6.050;2024-01-15T14:59:57;4.70;96.60
37412;DHT22;23278;52.110;6.050;2024-01-15T15:02:23;4.50;96.70
37412;DHT22;23278;52.110;6.050;2024-01-15T15:04:54;4.30;97.40
37412;DHT22;23278;52.110;6.050;2024-01-15T15:07:22;4.10;98.10
37412;DHT22;23278;52.110;6.050;2024-01-15T15:09:48;3.90;98.40
37412;DHT22;23278;52.110;6.050;2024-01-15T15:12:16;3.80;98.90
37412;DHT22;23278;52.110;6.050;2024-01-15T15:14:42;3.70;99.50
37412;DHT22;23278;52.110;6.050;2024-01-15T15:17:08;3.60;99.90
37412;DHT22;23278;52.110;6.050;2024-01-15T15:19:35;3.50;99.90
37412;DHT22;23278;52.110;6.050;2024-01-15T15:22:02;3.50;99.90
37412;DHT22;23278;52.110;6.050;2024-01-15T15:24:28;3.40;99.90
37412;DHT22;23278;52.110;6.050;2024-01-15T15:26:54;3.30;99.90
37412;DHT22;23278;52.110;6.050;2024-01-15T15:29:20;3.30;99.90
37412;DHT22;23278;52.110;6.050;2024-01-15T15:31:46;3.20;99.90
37412;DHT22;23278;52.110;6.050;2024-01-15T15:34:14;3.20;99.90
37412;DHT22;23278;52.110;6.050;2024-01-15T15:36:43;3.20;99.90
37412;DHT22;23278;52.110;6.050;2024-01-15T15:39:09;3.30;99.90
37412;DHT22;23278;52.110;6.050;2024-01-15T15:46:23;3.10;99.90
37412;DHT22;23278;52.110;6.050;2024-01-15T15:48:49;3.10;99.90
37412;DHT22;23278;52.110;6.050;2024-01-15T15:51:14;3.20;99.90
37412;DHT22;23278;52.110;6.050;2024-01-15T15:53:41;3.20;99.90
37412;DHT22;23278;52.110;6.050;2024-01-15T15:56:07;3.20;99.90
37412;DHT22;23278;52.110;6.050;2024-01-15T15:58:32;3.00;99.90